createdAt,value
2022-11-21T00:02:17.618Z,42.95
2022-11-21T00:07:19.436Z,43.25
2022-11-21T00:12:21.448Z,43.16
2022-11-21T00:17:23.689Z,42.93
2022-11-21T00:22:25.564Z,42.78
2022-11-21T00:27:27.635Z,42.87
2022-11-21T00:32:29.686Z,42.82
2022-11-21T00:37:34.695Z,42.90
2022-11-21T00:42:36.490Z,42.77
2022-11-21T00:47:38.504Z,42.68
2022-11-21T00:52:40.550Z,42.88
2022-11-21T00:57:42.427Z,42.77
2022-11-21T01:02:44.717Z,43.12
2022-11-21T01:07:48.755Z,42.72
2022-11-21T01:12:50.600Z,43.01
2022-11-21T01:17:52.360Z,42.92
2022-11-21T01:22:54.325Z,43.00
2022-11-21T01:27:56.259Z,42.63
2022-11-21T01:32:58.148Z,42.70
2022-11-21T01:38:00.163Z,42.76
2022-11-21T01:43:14.143Z,42.60
2022-11-21T01:48:16.221Z,42.71
2022-11-21T01:53:18.715Z,42.88
2022-11-21T01:58:22.021Z,42.91
2022-11-21T02:03:27.263Z,42.74
2022-11-21T02:08:30.064Z,42.77
2022-11-21T02:13:31.818Z,43.01
2022-11-21T02:18:33.993Z,42.94
2022-11-21T02:24:04.157Z,42.89
2022-11-21T02:29:06.080Z,42.78
2022-11-21T02:34:07.945Z,42.87
2022-11-21T02:39:34.534Z,43.01
2022-11-21T02:44:49.330Z,42.91
2022-11-21T02:50:19.715Z,43.04
2022-11-21T02:55:22.065Z,42.98
2022-11-21T03:00:24.829Z,42.94
2022-11-21T03:05:26.714Z,42.88
2022-11-21T03:10:28.568Z,43.16
2022-11-21T03:15:32.788Z,42.99
2022-11-21T03:20:35.625Z,42.99
2022-11-21T03:25:37.454Z,43.05
2022-11-21T03:30:39.347Z,42.70
2022-11-21T03:35:41.180Z,43.10
2022-11-21T03:40:43.096Z,42.76
2022-11-21T03:45:48.321Z,42.83
2022-11-21T03:50:50.172Z,43.02
2022-11-21T03:55:52.048Z,42.78
2022-11-21T04:00:53.842Z,42.84
2022-11-21T04:05:55.750Z,42.77
2022-11-21T04:10:57.683Z,42.66
2022-11-21T04:15:59.420Z,42.80
2022-11-21T04:21:06.669Z,42.72
2022-11-21T04:26:08.631Z,43.08
2022-11-21T04:31:11.412Z,42.91
2022-11-21T04:36:13.524Z,43.12
2022-11-21T04:41:15.596Z,42.82
2022-11-21T04:46:17.356Z,42.83
2022-11-21T04:51:19.311Z,42.91
2022-11-21T04:56:21.087Z,43.05
2022-11-21T05:01:23.210Z,42.85
2022-11-21T05:06:25.008Z,42.64
2022-11-21T05:11:45.167Z,42.84
2022-11-21T05:16:47.019Z,43.00
2022-11-21T05:21:48.907Z,43.02
2022-11-21T05:26:50.700Z,42.90
2022-11-21T05:31:52.606Z,42.74
2022-11-21T05:37:00.736Z,43.53
2022-11-21T05:42:03.465Z,43.63
2022-11-21T05:47:05.355Z,44.21
2022-11-21T05:52:07.123Z,44.51
2022-11-21T05:57:08.960Z,43.88
2022-11-21T06:02:29.398Z,43.68
2022-11-21T06:07:31.299Z,43.34
2022-11-21T06:12:33.163Z,43.23
2022-11-21T06:17:35.148Z,45.26
2022-11-21T06:22:37.065Z,45.73
2022-11-21T06:27:38.865Z,45.52
2022-11-21T06:32:40.843Z,45.00
2022-11-21T06:37:43.006Z,44.83
2022-11-21T06:42:45.024Z,44.61
2022-11-21T06:47:47.121Z,44.73
2022-11-21T06:52:49.152Z,44.46
2022-11-21T06:57:51.006Z,44.08
2022-11-21T07:02:52.980Z,44.46
2022-11-21T07:08:02.836Z,44.23
2022-11-21T07:13:23.297Z,44.06
2022-11-21T07:18:27.028Z,44.38
2022-11-21T07:23:29.690Z,44.18
2022-11-21T07:28:32.404Z,44.21
2022-11-21T07:33:34.579Z,43.84
2022-11-21T07:38:36.413Z,43.92
2022-11-21T07:43:38.600Z,43.72
2022-11-21T07:48:40.321Z,43.57
2022-11-21T07:53:42.221Z,43.41
2022-11-21T07:58:44.160Z,43.40
2022-11-21T08:03:46.330Z,43.27
2022-11-21T08:08:51.859Z,43.24
2022-11-21T08:13:54.009Z,43.35
2022-11-21T08:18:56.372Z,43.14
2022-11-21T08:23:58.395Z,43.12
2022-11-21T08:29:00.653Z,43.00
2022-11-21T08:34:02.905Z,43.37
2022-11-21T08:39:05.524Z,43.43
2022-11-21T08:44:13.691Z,43.12
2022-11-21T08:49:16.236Z,44.91
2022-11-21T08:54:23.021Z,44.48
2022-11-21T08:59:25.180Z,43.31
2022-11-21T09:04:27.624Z,43.28
2022-11-21T09:09:29.742Z,44.74
2022-11-21T09:14:50.473Z,44.12
2022-11-21T09:19:53.028Z,43.55
2022-11-21T09:24:55.005Z,43.21
2022-11-21T09:29:57.088Z,43.34
2022-11-21T09:34:58.890Z,42.85
2022-11-21T09:40:01.583Z,42.78
2022-11-21T09:45:15.999Z,42.87
2022-11-21T09:50:35.655Z,43.04
2022-11-21T09:55:47.300Z,43.20
2022-11-21T10:00:52.346Z,42.91
2022-11-21T10:06:18.533Z,42.92
2022-11-21T10:12:18.980Z,42.87
2022-11-21T10:17:36.132Z,42.89
2022-11-21T10:22:51.592Z,42.83
2022-11-21T10:28:03.129Z,43.02
2022-11-21T10:33:11.535Z,42.74
2022-11-21T10:38:22.807Z,42.97
2022-11-21T10:43:54.460Z,42.93
2022-11-21T10:49:00.235Z,42.74
2022-11-21T10:54:26.401Z,42.92
2022-11-21T10:59:31.461Z,42.89
2022-11-21T11:04:43.747Z,43.07
2022-11-21T11:09:48.204Z,43.06
2022-11-21T11:14:52.895Z,43.06
2022-11-21T11:20:05.793Z,42.84
2022-11-21T11:25:09.925Z,43.25
2022-11-21T11:30:16.549Z,43.37
2022-11-21T11:35:23.764Z,43.15
2022-11-21T11:40:41.050Z,42.95
2022-11-21T11:46:23.985Z,42.84
2022-11-21T11:51:30.765Z,43.02
2022-11-21T11:56:37.337Z,42.61
2022-11-21T12:01:45.775Z,42.63
2022-11-21T12:08:05.885Z,42.67
2022-11-21T12:12:37.407Z,43.02
2022-11-21T12:18:00.160Z,43.17
2022-11-21T12:23:03.280Z,43.14
2022-11-21T12:28:17.564Z,43.07
2022-11-21T12:33:23.620Z,43.32
2022-11-21T12:38:53.344Z,43.27
2022-11-21T12:44:10.122Z,43.08
2022-11-21T12:50:03.255Z,43.30
2022-11-21T12:55:08.236Z,43.33
2022-11-21T13:00:16.479Z,43.40
2022-11-21T13:05:25.585Z,43.42
2022-11-21T13:10:28.397Z,43.37
2022-11-21T13:15:42.003Z,43.46
2022-11-21T13:20:52.359Z,43.09
2022-11-21T13:25:54.291Z,43.24
2022-11-21T13:30:57.798Z,43.11
2022-11-21T13:36:00.351Z,43.12
2022-11-21T13:41:21.222Z,43.40
2022-11-21T13:47:00.870Z,43.22
2022-11-21T13:52:11.825Z,43.26
2022-11-21T13:57:25.814Z,43.25
2022-11-21T14:02:57.110Z,43.41
2022-11-21T14:08:23.716Z,43.59
2022-11-21T14:13:34.934Z,43.44
2022-11-21T14:18:39.397Z,43.17
2022-11-21T14:23:44.652Z,43.22
2022-11-21T14:28:47.654Z,43.45
2022-11-21T14:33:50.444Z,43.24
2022-11-21T14:39:20.961Z,43.39
2022-11-21T14:44:18.110Z,43.35
2022-11-21T14:49:23.628Z,43.72
2022-11-21T14:54:29.963Z,43.38
2022-11-21T14:59:39.180Z,43.59
2022-11-21T15:04:42.939Z,43.73
2022-11-21T15:10:26.968Z,43.57
2022-11-21T15:15:21.720Z,43.55
2022-11-21T15:20:24.042Z,43.50
2022-11-21T15:25:31.650Z,43.84
2022-11-21T15:30:34.723Z,43.83
2022-11-21T15:35:47.134Z,43.86
2022-11-21T15:40:59.543Z,43.91
2022-11-21T15:46:12.074Z,43.73
2022-11-21T15:51:14.592Z,43.88
2022-11-21T15:56:22.787Z,44.00
2022-11-21T16:01:27.093Z,43.84
2022-11-21T16:06:29.529Z,43.81
2022-11-21T16:11:38.124Z,44.08
2022-11-21T16:16:43.494Z,44.02
2022-11-21T16:21:45.865Z,43.66
2022-11-21T16:26:49.536Z,43.68
2022-11-21T16:31:52.667Z,43.72
2022-11-21T16:36:55.876Z,43.87
2022-11-21T16:41:57.839Z,43.93
2022-11-21T16:47:03.733Z,43.96
2022-11-21T16:52:10.869Z,44.41
2022-11-21T16:57:12.849Z,44.75
2022-11-21T17:02:16.250Z,44.78
2022-11-21T17:07:19.059Z,44.59
2022-11-21T17:12:21.515Z,44.53
2022-11-21T17:17:23.722Z,44.79
2022-11-21T17:22:25.934Z,44.79
2022-11-21T17:27:28.258Z,44.64
2022-11-21T17:32:30.367Z,44.48
2022-11-21T17:37:32.468Z,44.29
2022-11-21T17:42:35.035Z,44.52
2022-11-21T17:47:41.539Z,44.59
2022-11-21T17:52:43.710Z,44.21
2022-11-21T17:57:47.770Z,44.58
2022-11-21T18:02:50.092Z,44.21
2022-11-21T18:07:52.526Z,44.38
2022-11-21T18:12:55.956Z,44.26
2022-11-21T18:17:58.241Z,44.30
2022-11-21T18:23:00.494Z,44.35
2022-11-21T18:28:03.495Z,44.17
2022-11-21T18:33:05.409Z,44.20
2022-11-21T18:38:08.060Z,44.46
2022-11-21T18:43:11.184Z,44.14
2022-11-21T18:48:14.420Z,44.23
2022-11-21T18:53:16.881Z,44.55
2022-11-21T18:58:18.954Z,44.26
2022-11-21T19:03:21.559Z,44.26
2022-11-21T19:08:24.509Z,44.40
2022-11-21T19:13:28.306Z,44.49
2022-11-21T19:18:37.839Z,44.29
2022-11-21T19:23:44.280Z,44.58
2022-11-21T19:28:46.504Z,44.58
2022-11-21T19:33:48.430Z,44.35
2022-11-21T19:38:51.728Z,44.24
2022-11-21T19:43:56.484Z,44.14
2022-11-21T19:48:59.407Z,44.46
2022-11-21T19:54:09.359Z,44.18
2022-11-21T19:59:12.888Z,44.51
2022-11-21T20:04:14.810Z,44.43
2022-11-21T20:09:22.387Z,44.37
2022-11-21T20:14:24.469Z,44.37
2022-11-21T20:19:27.404Z,44.17
2022-11-21T20:24:29.928Z,44.20
2022-11-21T20:29:31.957Z,44.36
2022-11-21T20:34:36.179Z,44.13
2022-11-21T20:39:38.080Z,44.23
2022-11-21T20:50:02.235Z,44.10
2022-11-21T20:55:04.459Z,44.31
2022-11-21T21:00:06.864Z,44.22
2022-11-21T21:05:09.097Z,43.97
2022-11-21T21:10:11.354Z,44.14
2022-11-21T21:15:13.231Z,44.34
2022-11-21T21:20:15.428Z,44.01
2022-11-21T21:25:17.427Z,44.34
2022-11-21T21:30:19.806Z,44.19
2022-11-21T21:35:21.799Z,44.63
2022-11-21T21:40:23.742Z,44.79
2022-11-21T21:45:25.955Z,44.70
2022-11-21T21:50:27.994Z,44.47
2022-11-21T21:55:30.137Z,44.36
2022-11-21T22:00:32.460Z,44.58
2022-11-21T22:05:34.537Z,44.30
2022-11-21T22:10:36.564Z,44.21
2022-11-21T22:15:38.749Z,44.26
2022-11-21T22:20:40.669Z,44.44
2022-11-21T22:25:42.789Z,44.42
2022-11-21T22:30:54.468Z,44.15
2022-11-21T22:36:04.806Z,44.45
2022-11-21T22:41:21.856Z,44.19
2022-11-21T22:46:24.992Z,44.21
2022-11-21T22:51:31.887Z,44.48
2022-11-21T22:56:33.910Z,44.40
2022-11-21T23:01:35.848Z,44.14
2022-11-21T23:06:37.741Z,44.20
2022-11-21T23:11:41.003Z,44.06
2022-11-21T23:16:43.147Z,44.11
2022-11-21T23:21:45.303Z,44.45
2022-11-21T23:26:47.126Z,44.19
2022-11-21T23:31:48.905Z,44.30
2022-11-21T23:36:50.789Z,44.17
2022-11-21T23:41:52.749Z,44.32
2022-11-21T23:46:54.869Z,44.10
2022-11-21T23:51:56.798Z,44.36
2022-11-21T23:56:58.719Z,44.27
